createdAt,value
2019-05-15T00:05:19.000Z,48.003
2019-05-15T00:15:19.000Z,47.936
2019-05-15T00:25:19.000Z,47.87
2019-05-15T01:05:19.000Z,47.803
2019-05-15T01:15:19.000Z,48.077
2019-05-15T01:25:21.000Z,47.945
2019-05-15T01:35:19.000Z,47.805
2019-05-15T01:45:19.000Z,47.896
2019-05-15T02:05:19.000Z,48.006
2019-05-15T02:15:19.000Z,47.876
2019-05-15T02:25:20.000Z,47.925
2019-05-15T02:35:19.000Z,47.795
2019-05-15T02:45:19.000Z,47.94
2019-05-15T03:05:19.000Z,47.872
2019-05-15T03:15:20.000Z,47.73
2019-05-15T03:25:20.000Z,47.77
2019-05-15T03:35:20.000Z,47.799
2019-05-15T03:45:20.000Z,47.828
2019-05-15T03:55:20.000Z,47.804
2019-05-15T04:05:21.000Z,47.749
2019-05-15T04:15:22.000Z,47.669
2019-05-15T04:25:20.000Z,47.71
2019-05-15T04:35:24.000Z,47.74
2019-05-15T04:45:20.000Z,47.653
2019-05-15T04:55:22.000Z,47.457
2019-05-15T05:05:23.000Z,47.249
2019-05-15T05:15:20.000Z,47.099
2019-05-15T05:25:21.000Z,47.271
2019-05-15T05:35:20.000Z,47.287
2019-05-15T05:45:22.000Z,47.122
2019-05-15T05:55:20.000Z,47.275
2019-05-15T06:05:20.000Z,46.992
2019-05-15T06:15:20.000Z,46.89
2019-05-15T06:25:20.000Z,46.873
2019-05-15T06:35:20.000Z,46.765
2019-05-15T06:45:20.000Z,46.431
2019-05-15T06:55:22.000Z,47.699
2019-05-15T07:05:20.000Z,48.094
2019-05-15T07:15:20.000Z,48.2
2019-05-15T07:25:20.000Z,48.029
2019-05-15T07:35:20.000Z,47.873
2019-05-15T07:45:20.000Z,47.842
2019-05-15T07:55:20.000Z,47.696
2019-05-15T08:05:21.000Z,47.95
2019-05-15T08:15:20.000Z,47.611
2019-05-15T08:25:20.000Z,47.625
2019-05-15T08:35:23.000Z,47.663
2019-05-15T08:45:20.000Z,47.408
2019-05-15T08:55:22.000Z,47.27
2019-05-15T09:05:20.000Z,47.125
2019-05-15T09:25:21.000Z,46.841
2019-05-15T09:35:21.000Z,46.737
2019-05-15T09:45:20.000Z,46.881
2019-05-15T09:55:20.000Z,46.864
2019-05-15T10:05:20.000Z,46.834
2019-05-15T10:15:20.000Z,46.675
2019-05-15T10:25:20.000Z,46.701
2019-05-15T10:35:20.000Z,46.564
2019-05-15T10:45:20.000Z,46.479
2019-05-15T10:55:22.000Z,46.375
2019-05-15T11:05:20.000Z,46.213
2019-05-15T11:15:20.000Z,46.117
2019-05-15T11:25:20.000Z,45.833
2019-05-15T11:35:20.000Z,45.573
2019-05-15T11:45:21.000Z,45.402
2019-05-15T11:55:21.000Z,45.274
2019-05-15T12:05:21.000Z,45.077
2019-05-15T12:15:21.000Z,45.058
2019-05-15T12:25:23.000Z,44.959
2019-05-15T12:35:21.000Z,44.883
2019-05-15T13:05:21.000Z,44.744
2019-05-15T13:15:21.000Z,44.733
2019-05-15T13:25:21.000Z,44.689
2019-05-15T13:35:21.000Z,44.708
2019-05-15T13:45:21.000Z,44.739
2019-05-15T13:55:21.000Z,44.783
2019-05-15T14:05:22.000Z,44.75
2019-05-15T14:15:21.000Z,44.824
2019-05-15T14:25:21.000Z,44.855
2019-05-15T14:35:21.000Z,44.864
2019-05-15T14:45:23.000Z,44.832
2019-05-15T14:55:25.000Z,42.736
2019-05-15T15:05:21.000Z,42.656
2019-05-15T15:15:21.000Z,42.394
2019-05-15T15:25:21.000Z,42.924
2019-05-15T15:35:21.000Z,43.21
2019-05-15T15:45:21.000Z,43.604
2019-05-15T15:55:21.000Z,43.791
2019-05-15T16:05:21.000Z,45.428
2019-05-15T16:15:21.000Z,46.041
2019-05-15T16:25:21.000Z,46.128
2019-05-15T16:35:23.000Z,46.588
2019-05-15T16:45:21.000Z,46.335
2019-05-15T16:55:21.000Z,46.314
2019-05-15T17:05:21.000Z,46.314
2019-05-15T17:15:21.000Z,46.26
2019-05-15T17:25:21.000Z,46.098
2019-05-15T17:35:21.000Z,45.945
2019-05-15T17:45:21.000Z,45.837
2019-05-15T17:55:22.000Z,46.063
2019-05-15T18:05:21.000Z,46.169
2019-05-15T18:25:22.000Z,46.295
2019-05-15T18:35:21.000Z,46.305
2019-05-15T18:45:23.000Z,46.368
2019-05-15T18:55:21.000Z,46.454
2019-05-15T19:05:22.000Z,46.43
2019-05-15T19:15:21.000Z,46.777
2019-05-15T19:25:21.000Z,46.963
2019-05-15T19:35:23.000Z,46.984
2019-05-15T19:45:21.000Z,47.104
2019-05-15T19:55:21.000Z,47.091
2019-05-15T20:05:21.000Z,47.189
2019-05-15T20:15:22.000Z,47.244
2019-05-15T20:25:22.000Z,47.34
2019-05-15T20:35:22.000Z,47.442
2019-05-15T20:45:22.000Z,47.548
2019-05-15T20:55:22.000Z,47.568
2019-05-15T21:05:22.000Z,47.609
2019-05-15T21:15:26.000Z,47.749
2019-05-15T21:25:22.000Z,47.595
2019-05-15T21:35:22.000Z,47.625
2019-05-15T21:45:22.000Z,47.386
2019-05-15T21:55:22.000Z,47.566
2019-05-15T22:05:22.000Z,47.565
2019-05-15T22:15:22.000Z,47.376
2019-05-15T22:25:23.000Z,47.416
2019-05-15T22:35:23.000Z,47.37
2019-05-15T22:45:22.000Z,47.333
2019-05-15T22:55:22.000Z,47.296
2019-05-15T23:05:22.000Z,47.293
2019-05-15T23:15:23.000Z,47.267
2019-05-15T23:25:22.000Z,47.244
2019-05-15T23:35:22.000Z,47.271
2019-05-15T23:45:22.000Z,47.204
2019-05-15T23:55:22.000Z,47.092
